NCAR-RAP Real-Time Weather Data

Output produced by METARs form (12 August 2020  17:33 UTC)
found at http://weather.rap.ucar.edu/surface/
 
KMAF 121653Z 19010KT 10SM CLR 33/16 A3001 RMK AO2 SLP105 T03330161
KMAF 121553Z 15014KT 10SM CLR 31/16 A3001 RMK AO2 SLP107 T03110161
KMAF 121453Z 18017KT 10SM CLR 29/17 A3001 RMK AO2 SLP108 T02890167 50004
KMAF 121353Z 16013KT 10SM CLR 26/17 A3002 RMK AO2 SLP112 T02610167
KMAF 121253Z 16008KT 10SM CLR 24/16 A3001 RMK AO2 SLP109 T02440156
KMAF 121153Z 16007KT 10SM CLR 24/14 A3000 RMK AO2 SLP102 T02440144 10289 20244 55000
KMAF 121053Z 16010KT 10SM CLR 26/14 A2999 RMK AO2 SLP099 T02610139
KMAF 120953Z AUTO 16010KT 10SM CLR 26/13 A2999 RMK AO2 SLP099 T02560128 TSNO
KMAF 120853Z AUTO 16008KT 10SM CLR 26/12 A3000 RMK AO2 SLP102 T02610122 53003
KMAF 120753Z AUTO 00000KT 10SM CLR 26/12 A2999 RMK AO2 SLP101 T02560117
KMAF 120653Z AUTO 18010KT 10SM CLR 28/12 A2998 RMK AO2 SLP094 T02780117
KMAF 120553Z AUTO 17012KT 10SM CLR 29/12 A2999 RMK AO2 SLP099 T02890117 10372 20289 403830239 51015
KMAF 120453Z AUTO 16012KT 10SM CLR 29/12 A2999 RMK AO2 SLP098 T02940117
KMAF 120353Z 14009KT 10SM CLR 30/11 A2997 RMK AO2 SLP094 T03000106
KMAF 120253Z 16012KT 10SM CLR 32/11 A2994 RMK AO2 SLP086 T03170106 53009
KMAF 120153Z 16010KT 10SM CLR 34/11 A2993 RMK AO2 SLP082 T03390106
KMAF 120053Z 17012KT 10SM CLR 36/11 A2992 RMK AO2 SLP076 T03560111
KMAF 112353Z 13011KT 10SM CLR 37/10 A2991 RMK AO2 SLP074 T03720100 10383 20339 56009
KMAF 112253Z 16014G18KT 10SM CLR 38/11 A2992 RMK AO2 SLP074 T03780111
KMAF 112153Z 16017G25KT 10SM CLR 38/13 A2992 RMK AO2 SLP076 T03780128
KMAF 112053Z 16011G20KT 10SM CLR 37/12 A2994 RMK AO2 SLP081 T03720122 58017